Main page
METAR-TAF:

METAR-TAF

Airports :

Bahrain International Airport

Bahrain, Bahrain

latitude: 26-16N, longitude: 050-39E, elevation: 2 m

Current weather observation

The report was made 20 minutes ago, at 19:00 UTC
Wind 4 kt from the North/Northwest
Temperature 33°C
Humidity 59%
Pressure 999 hPa
Visibility 10 km or more
no clouds below 1500 m and no cumulonimbus

METAR: OBBI 181900Z 34004KT CAVOK 33/24 Q0999 NOSIG

Time: 22:20 (19:20 UTC)

Forecast

The report was made 2 hours and 20 minutes ago, at 17:00 UTC
Forecast valid from 18 at 18 UTC to 20 at 00 UTC
Wind 10 kt from the Northwest
Visibility 10 km or more
no clouds below 1500 m and no cumulonimbus
Probability 30% :
Temporary
from 18 at 21 UTC to 19 at 03 UTC
Visibility: 5000 m
widespread dust
Becoming
from 19 at 04 UTC to 19 at 06 UTC
Wind 17 kt from the North/Northwest with gusts up to 27 kt

TAF: OBBI 181700Z 1818/2000 31010KT CAVOK PROB30 TEMPO 1821/1903 5000 DU BECMG 1904/1906 33017G27KT

Weather observations and forecasts of more than 4000 airports (METAR and TAF reports).

The available stations are represented by yellow and red dots on the map.

Hover mouse over dot to see the name of the station.

Then click to see weather observations and forecasts.

To change the map : click on the green buttons with a black cross to zoom in, on the green button with a dash to zoom out, or on the green arrows for adjacent maps.


METAR-TAF: